createdAt,value
2022-12-07T00:01:10.251Z,9.18
2022-12-07T00:03:38.939Z,10.30
2022-12-07T00:06:07.056Z,10.65
2022-12-07T00:08:35.048Z,11.68
2022-12-07T00:11:22.976Z,11.07
2022-12-07T00:16:22.924Z,10.88
2022-12-07T00:18:49.740Z,13.50
2022-12-07T00:21:18.923Z,13.30
2022-12-07T00:23:46.900Z,12.27
2022-12-07T00:26:17.777Z,12.30
2022-12-07T00:28:53.184Z,14.00
2022-12-07T00:31:21.984Z,13.73
2022-12-07T00:33:48.939Z,13.23
2022-12-07T00:36:21.759Z,12.68
2022-12-07T00:38:51.299Z,12.02
2022-12-07T00:41:20.770Z,12.30
2022-12-07T00:46:15.667Z,13.30
2022-12-07T00:48:42.476Z,16.88
2022-12-07T00:51:10.597Z,13.38
2022-12-07T00:53:41.343Z,15.85
2022-12-07T00:56:10.201Z,14.63
2022-12-07T00:58:36.831Z,15.50
2022-12-07T01:01:05.328Z,15.25
2022-12-07T01:03:32.077Z,17.20
2022-12-07T01:05:58.872Z,13.35
2022-12-07T01:08:27.181Z,18.20
2022-12-07T01:11:06.120Z,19.38
2022-12-07T01:13:33.940Z,20.83
2022-12-07T01:16:02.562Z,16.13
2022-12-07T01:18:33.543Z,15.18
2022-12-07T01:21:05.329Z,18.98
2022-12-07T01:23:32.811Z,11.10
2022-12-07T01:26:01.661Z,12.95
2022-12-07T01:28:28.439Z,11.13
2022-12-07T01:30:57.973Z,13.13
2022-12-07T01:33:24.492Z,11.50
2022-12-07T01:35:50.920Z,11.88
2022-12-07T01:38:17.343Z,10.70
2022-12-07T01:40:43.963Z,11.80
2022-12-07T01:43:21.071Z,11.05
2022-12-07T01:45:47.554Z,14.13
2022-12-07T01:48:17.881Z,13.23
2022-12-07T01:50:47.491Z,13.60
2022-12-07T01:53:14.677Z,17.80
2022-12-07T01:55:45.515Z,16.77
2022-12-07T01:58:13.257Z,13.40
2022-12-07T02:00:40.274Z,13.20
2022-12-07T02:03:09.875Z,15.10
2022-12-07T02:05:39.217Z,13.18
2022-12-07T02:10:33.473Z,10.73
2022-12-07T02:13:07.498Z,15.07
2022-12-07T02:15:55.756Z,13.82
2022-12-07T02:18:53.941Z,13.25
2022-12-07T02:21:41.805Z,12.77
2022-12-07T02:26:54.540Z,15.27
2022-12-07T02:29:29.694Z,14.75
2022-12-07T02:32:13.469Z,13.65
2022-12-07T02:34:51.212Z,13.38
2022-12-07T02:37:36.288Z,13.30
2022-12-07T02:40:10.028Z,10.93
2022-12-07T02:42:43.560Z,13.93
2022-12-07T02:45:12.301Z,14.27
2022-12-07T02:47:39.949Z,15.32
2022-12-07T02:50:07.502Z,12.50
2022-12-07T02:52:33.946Z,17.23
2022-12-07T02:55:00.814Z,14.38
2022-12-07T02:57:56.619Z,13.38
2022-12-07T03:00:23.241Z,12.35
2022-12-07T03:03:01.667Z,11.98
2022-12-07T03:05:37.374Z,11.75
2022-12-07T03:08:03.859Z,14.13
2022-12-07T03:10:54.680Z,13.32
2022-12-07T03:13:32.323Z,16.48
2022-12-07T03:16:05.135Z,12.70
2022-12-07T03:18:36.646Z,16.20
2022-12-07T03:21:10.812Z,9.57
2022-12-07T03:23:39.846Z,14.98
2022-12-07T03:26:09.982Z,16.98
2022-12-07T03:28:46.169Z,18.40
2022-12-07T03:31:32.757Z,16.48
2022-12-07T03:34:17.327Z,16.95
2022-12-07T03:37:02.604Z,16.92
2022-12-07T03:39:37.238Z,14.18
2022-12-07T03:42:06.640Z,13.98
2022-12-07T03:47:07.516Z,16.08
2022-12-07T03:49:40.473Z,16.73
2022-12-07T03:52:48.540Z,13.25
2022-12-07T03:55:27.270Z,13.02
2022-12-07T03:58:00.922Z,15.80
2022-12-07T04:00:27.414Z,15.73
2022-12-07T04:02:54.788Z,7.80
2022-12-07T04:05:21.546Z,14.55
2022-12-07T04:07:48.080Z,14.73
2022-12-07T04:10:14.615Z,16.65
2022-12-07T04:12:41.177Z,15.38
2022-12-07T04:15:08.631Z,13.20
2022-12-07T04:17:35.250Z,12.48
2022-12-07T04:20:02.136Z,12.57
2022-12-07T04:22:28.839Z,14.60
2022-12-07T04:24:55.275Z,17.73
2022-12-07T04:27:21.822Z,18.00
2022-12-07T04:29:48.324Z,16.92
2022-12-07T04:32:14.756Z,14.35
2022-12-07T04:34:41.339Z,15.40
2022-12-07T04:37:07.798Z,16.15
2022-12-07T04:39:34.953Z,13.75
2022-12-07T04:42:02.352Z,12.05
2022-12-07T04:44:30.197Z,12.60
2022-12-07T04:46:58.086Z,12.15
2022-12-07T04:49:25.728Z,12.80
2022-12-07T04:51:52.655Z,19.30
2022-12-07T04:54:19.561Z,14.82
2022-12-07T04:56:46.079Z,13.13
2022-12-07T04:59:13.922Z,12.15
2022-12-07T05:01:40.946Z,15.45
2022-12-07T05:04:08.462Z,15.18
2022-12-07T05:06:35.361Z,14.05
2022-12-07T05:09:02.152Z,12.50
2022-12-07T05:11:41.097Z,13.10
2022-12-07T05:14:09.508Z,11.40
2022-12-07T05:16:36.338Z,13.43
2022-12-07T05:19:03.857Z,8.30
2022-12-07T05:21:30.376Z,11.85
2022-12-07T05:23:57.010Z,13.27
2022-12-07T05:26:23.592Z,9.65
2022-12-07T05:28:55.192Z,11.30
2022-12-07T05:31:22.278Z,11.95
2022-12-07T05:33:49.049Z,12.82
2022-12-07T05:36:15.739Z,12.50
2022-12-07T05:38:42.391Z,10.25
2022-12-07T05:41:29.827Z,13.90
2022-12-07T05:43:57.195Z,14.57
2022-12-07T05:46:23.811Z,11.77
2022-12-07T05:48:50.250Z,14.40
2022-12-07T05:51:16.789Z,12.85
2022-12-07T05:53:43.361Z,11.15
2022-12-07T05:56:09.792Z,11.98
2022-12-07T05:58:54.820Z,11.27
2022-12-07T06:01:21.271Z,12.15
2022-12-07T06:03:47.702Z,13.07
2022-12-07T06:06:14.536Z,12.45
2022-12-07T06:08:41.112Z,10.45
2022-12-07T06:11:25.899Z,10.85
2022-12-07T06:13:52.386Z,9.75
2022-12-07T06:16:18.851Z,11.38
2022-12-07T06:18:45.405Z,11.10
2022-12-07T06:21:11.872Z,10.13
2022-12-07T06:23:38.311Z,10.00
2022-12-07T06:26:04.919Z,12.20
2022-12-07T06:28:31.470Z,11.02
2022-12-07T06:31:02.654Z,11.68
2022-12-07T06:33:30.062Z,11.48
2022-12-07T06:35:56.592Z,9.23
2022-12-07T06:38:23.071Z,9.52
2022-12-07T06:40:49.683Z,10.77
2022-12-07T06:43:16.139Z,9.60
2022-12-07T06:45:43.115Z,8.23
2022-12-07T06:48:09.669Z,11.43
2022-12-07T06:50:36.344Z,10.30
2022-12-07T06:53:02.926Z,10.07
2022-12-07T06:55:30.212Z,10.75
2022-12-07T06:57:56.728Z,9.25
2022-12-07T07:00:23.349Z,9.57
2022-12-07T07:02:50.144Z,10.73
2022-12-07T07:05:17.467Z,8.45
2022-12-07T07:08:05.290Z,8.40
2022-12-07T07:10:30.482Z,8.38
2022-12-07T07:12:57.751Z,8.25
2022-12-07T07:15:24.611Z,7.50
2022-12-07T07:17:51.117Z,10.13
2022-12-07T07:20:17.725Z,11.68
2022-12-07T07:22:44.417Z,8.73
2022-12-07T07:25:11.017Z,8.10
2022-12-07T07:27:37.440Z,15.25
2022-12-07T07:30:05.267Z,14.85
2022-12-07T07:32:31.837Z,9.13
2022-12-07T07:34:58.284Z,13.73
2022-12-07T07:37:24.973Z,11.80
2022-12-07T07:39:51.453Z,12.40
2022-12-07T07:42:18.264Z,7.90
2022-12-07T07:44:45.018Z,9.60
2022-12-07T07:47:11.569Z,7.45
2022-12-07T07:49:40.819Z,8.00
2022-12-07T07:52:11.284Z,13.18
2022-12-07T07:54:37.768Z,8.20
2022-12-07T07:57:04.491Z,9.25
2022-12-07T07:59:32.149Z,12.35
2022-12-07T08:01:58.917Z,9.40
2022-12-07T08:04:25.510Z,9.95
2022-12-07T08:06:52.104Z,9.75
2022-12-07T08:09:18.578Z,8.23
2022-12-07T08:11:46.410Z,7.82
2022-12-07T08:14:13.048Z,11.82
2022-12-07T08:16:39.762Z,12.77
2022-12-07T08:19:06.712Z,10.43
2022-12-07T08:21:33.170Z,9.57
2022-12-07T08:23:59.966Z,12.15
2022-12-07T08:26:26.477Z,8.80
2022-12-07T08:28:54.332Z,10.95
2022-12-07T08:31:21.620Z,8.20
2022-12-07T08:33:48.880Z,7.13
2022-12-07T08:36:15.993Z,10.38
2022-12-07T08:38:47.838Z,8.73
2022-12-07T08:41:22.772Z,9.30
2022-12-07T08:43:49.341Z,10.18
2022-12-07T08:46:46.463Z,7.82
2022-12-07T08:49:17.493Z,9.18
2022-12-07T08:51:44.152Z,11.00
2022-12-07T08:54:15.316Z,11.20
2022-12-07T08:56:42.370Z,14.63
2022-12-07T08:59:09.344Z,9.13
2022-12-07T09:01:35.817Z,7.65
2022-12-07T09:04:02.313Z,11.48
2022-12-07T09:06:29.014Z,7.63
2022-12-07T09:08:59.297Z,6.55
2022-12-07T09:11:28.859Z,9.40
2022-12-07T09:13:56.113Z,10.55
2022-12-07T09:16:22.772Z,10.77
2022-12-07T09:18:49.350Z,12.50
2022-12-07T09:21:15.849Z,9.55
2022-12-07T09:23:43.642Z,11.73
2022-12-07T09:26:11.068Z,10.77
2022-12-07T09:28:38.832Z,10.65
2022-12-07T09:31:24.839Z,8.70
2022-12-07T09:34:00.825Z,11.77
2022-12-07T09:36:28.650Z,9.80
2022-12-07T09:38:55.230Z,9.75
2022-12-07T09:41:25.108Z,10.27
2022-12-07T09:43:52.274Z,11.18
2022-12-07T09:46:21.453Z,9.02
2022-12-07T09:51:23.805Z,7.95
2022-12-07T09:53:56.190Z,12.30
2022-12-07T09:56:23.782Z,8.02
2022-12-07T09:58:52.746Z,11.40
2022-12-07T10:01:22.618Z,10.32
2022-12-07T10:03:56.687Z,9.63
2022-12-07T10:06:24.495Z,10.73
2022-12-07T10:08:51.333Z,8.80
2022-12-07T10:11:18.808Z,7.38
2022-12-07T10:13:49.923Z,10.40
2022-12-07T10:16:25.736Z,8.90
2022-12-07T10:18:52.924Z,12.20
2022-12-07T10:21:22.283Z,8.43
2022-12-07T10:24:06.795Z,9.05
2022-12-07T10:26:46.371Z,8.45
2022-12-07T10:29:12.941Z,9.57
2022-12-07T10:31:41.140Z,11.80
2022-12-07T10:34:41.434Z,9.35
2022-12-07T10:37:17.933Z,10.27
2022-12-07T10:39:47.874Z,9.55
2022-12-07T10:42:27.748Z,12.55
2022-12-07T10:45:12.876Z,8.50
2022-12-07T10:47:53.597Z,8.77
2022-12-07T10:50:58.737Z,12.93
2022-12-07T10:53:47.773Z,10.38
2022-12-07T10:56:36.127Z,10.63
2022-12-07T10:59:16.018Z,12.75
2022-12-07T11:01:51.186Z,11.13
2022-12-07T11:04:44.642Z,10.95
2022-12-07T11:07:29.135Z,8.38
2022-12-07T11:10:09.405Z,11.25
2022-12-07T11:12:42.572Z,12.48
2022-12-07T11:15:22.180Z,9.00
2022-12-07T11:18:09.152Z,14.43
2022-12-07T11:20:45.393Z,12.93
2022-12-07T11:23:33.834Z,12.68
2022-12-07T11:26:06.838Z,7.57
2022-12-07T11:28:39.893Z,7.32
2022-12-07T11:31:35.780Z,8.18
2022-12-07T11:34:18.823Z,4.97
2022-12-07T11:36:49.404Z,9.38
2022-12-07T11:39:40.341Z,11.57
2022-12-07T11:42:17.356Z,4.53
2022-12-07T11:44:43.987Z,8.18
2022-12-07T11:47:27.545Z,8.65
2022-12-07T11:50:06.150Z,7.00
2022-12-07T11:52:50.290Z,12.68
2022-12-07T11:55:30.610Z,8.05
2022-12-07T11:58:12.254Z,10.20
2022-12-07T12:00:40.012Z,6.88
2022-12-07T12:03:16.261Z,9.93
2022-12-07T12:05:43.078Z,9.05
2022-12-07T12:11:40.431Z,8.25
2022-12-07T12:14:37.772Z,6.80
2022-12-07T12:17:26.175Z,8.77
2022-12-07T12:20:01.915Z,4.43
2022-12-07T12:22:42.295Z,7.68
2022-12-07T12:25:32.924Z,8.88
2022-12-07T12:28:00.727Z,9.95
2022-12-07T12:30:38.111Z,7.18
2022-12-07T12:33:14.529Z,8.38
2022-12-07T12:35:41.410Z,7.50
2022-12-07T12:38:26.221Z,5.05
2022-12-07T12:40:53.183Z,9.13
2022-12-07T12:43:53.387Z,8.27
2022-12-07T12:46:36.059Z,6.43
2022-12-07T12:49:20.995Z,7.50
2022-12-07T12:51:54.944Z,5.68
2022-12-07T12:54:29.335Z,9.07
2022-12-07T12:57:18.262Z,8.73
2022-12-07T12:59:53.949Z,6.18
2022-12-07T13:02:49.944Z,6.38
2022-12-07T13:05:21.377Z,7.60
2022-12-07T13:07:48.023Z,10.70
2022-12-07T13:10:33.592Z,8.02
2022-12-07T13:13:12.074Z,7.30
2022-12-07T13:15:39.714Z,7.05
2022-12-07T13:18:08.872Z,11.38
2022-12-07T13:20:52.067Z,5.50
2022-12-07T13:23:34.057Z,8.73
2022-12-07T13:26:06.705Z,7.68
2022-12-07T13:28:41.654Z,7.55
2022-12-07T13:31:22.428Z,7.35
2022-12-07T13:33:49.424Z,9.18
2022-12-07T13:36:28.236Z,6.70
2022-12-07T13:39:00.015Z,6.30
2022-12-07T13:41:28.747Z,7.32
2022-12-07T13:44:00.940Z,11.05
2022-12-07T13:46:42.188Z,9.20
2022-12-07T13:49:29.671Z,9.18
2022-12-07T13:52:19.780Z,9.05
2022-12-07T13:54:56.672Z,13.40
2022-12-07T13:57:25.998Z,10.93
2022-12-07T14:02:33.734Z,14.10
2022-12-07T14:05:13.505Z,6.82
2022-12-07T14:08:12.504Z,10.93
2022-12-07T14:10:55.994Z,6.43
2022-12-07T14:13:31.465Z,11.43
2022-12-07T14:15:59.319Z,9.40
2022-12-07T14:18:39.651Z,7.57
2022-12-07T14:21:16.871Z,9.13
2022-12-07T14:23:43.500Z,9.18
2022-12-07T14:26:19.536Z,8.23
2022-12-07T14:28:46.896Z,6.30
2022-12-07T14:31:24.989Z,6.85
2022-12-07T14:34:01.829Z,7.57
2022-12-07T14:36:28.303Z,6.63
2022-12-07T14:38:57.310Z,5.40
2022-12-07T14:41:43.141Z,7.07
2022-12-07T14:44:34.103Z,7.55
2022-12-07T14:49:46.918Z,15.57
2022-12-07T14:55:30.125Z,6.72
2022-12-07T14:57:57.986Z,7.88
2022-12-07T15:00:26.980Z,8.50
2022-12-07T15:02:54.053Z,5.88
2022-12-07T15:05:20.640Z,5.03
2022-12-07T15:07:48.473Z,5.47
2022-12-07T15:10:24.844Z,7.32
2022-12-07T15:12:51.981Z,9.25
2022-12-07T15:15:18.593Z,8.18
2022-12-07T15:17:45.218Z,9.05
2022-12-07T15:20:17.720Z,7.13
2022-12-07T15:22:44.507Z,8.48
2022-12-07T15:25:14.817Z,11.32
2022-12-07T15:27:41.583Z,8.80
2022-12-07T15:30:08.615Z,8.93
2022-12-07T15:32:35.225Z,9.40
2022-12-07T15:35:02.155Z,5.95
2022-12-07T15:37:28.957Z,5.88
2022-12-07T15:39:55.546Z,10.95
2022-12-07T15:42:22.099Z,7.65
2022-12-07T15:45:07.843Z,14.73
2022-12-07T15:48:26.751Z,10.20
2022-12-07T15:53:01.256Z,12.05
2022-12-07T15:55:27.763Z,8.88
2022-12-07T15:57:54.252Z,8.73
2022-12-07T16:00:21.217Z,8.57
2022-12-07T16:02:47.865Z,9.60
2022-12-07T16:05:14.393Z,6.28
2022-12-07T16:07:40.889Z,5.82
2022-12-07T16:10:08.042Z,5.65
2022-12-07T16:12:34.579Z,7.53
2022-12-07T16:15:01.551Z,11.40
2022-12-07T16:17:28.752Z,6.88
2022-12-07T16:19:55.271Z,7.45
2022-12-07T16:22:21.924Z,9.13
2022-12-07T16:24:48.638Z,7.30
2022-12-07T16:27:15.182Z,7.30
2022-12-07T16:29:41.714Z,9.60
2022-12-07T16:32:08.256Z,7.60
2022-12-07T16:34:34.823Z,7.57
2022-12-07T16:37:04.124Z,5.35
2022-12-07T16:39:31.502Z,7.45
2022-12-07T16:41:58.181Z,9.65
2022-12-07T16:44:24.860Z,9.07
2022-12-07T16:46:51.671Z,10.27
2022-12-07T16:49:20.148Z,9.13
2022-12-07T16:51:48.426Z,11.45
2022-12-07T16:54:14.933Z,11.68
2022-12-07T16:56:42.390Z,12.30
2022-12-07T16:59:09.288Z,6.85
2022-12-07T17:01:36.892Z,9.00
2022-12-07T17:04:05.401Z,8.93
2022-12-07T17:06:32.608Z,6.43
2022-12-07T17:08:59.468Z,8.25
2022-12-07T17:11:31.879Z,8.27
2022-12-07T17:14:17.839Z,6.10
2022-12-07T17:16:44.697Z,10.27
2022-12-07T17:19:15.082Z,7.38
2022-12-07T17:21:42.987Z,3.92
2022-12-07T17:24:11.522Z,8.05
2022-12-07T17:26:38.872Z,7.30
2022-12-07T17:29:08.167Z,7.75
2022-12-07T17:34:02.204Z,6.95
2022-12-07T17:36:30.773Z,6.18
2022-12-07T17:38:58.022Z,9.25
2022-12-07T17:41:45.173Z,6.25
2022-12-07T17:44:14.157Z,8.73
2022-12-07T17:46:40.949Z,10.05
2022-12-07T17:49:07.857Z,8.32
2022-12-07T17:51:53.630Z,6.53
2022-12-07T17:54:20.542Z,8.93
2022-12-07T17:56:47.013Z,7.15
2022-12-07T17:59:14.517Z,8.20
2022-12-07T18:01:41.453Z,8.93
2022-12-07T18:04:08.518Z,9.43
2022-12-07T18:06:36.031Z,9.57
2022-12-07T18:09:03.003Z,7.05
2022-12-07T18:11:29.815Z,7.88
2022-12-07T18:13:56.319Z,5.70
2022-12-07T18:16:25.888Z,7.40
2022-12-07T18:18:54.030Z,5.82
2022-12-07T18:21:25.965Z,8.63
2022-12-07T18:23:55.019Z,4.45
2022-12-07T18:26:23.064Z,7.60
2022-12-07T18:28:49.642Z,8.35
2022-12-07T18:31:17.604Z,6.30
2022-12-07T18:33:46.416Z,7.30
2022-12-07T18:36:14.019Z,9.52
2022-12-07T18:38:40.845Z,7.88
2022-12-07T18:41:09.072Z,7.95
2022-12-07T18:43:35.684Z,6.53
2022-12-07T18:46:02.165Z,7.55
2022-12-07T18:48:30.279Z,7.75
2022-12-07T18:51:02.158Z,10.70
2022-12-07T18:53:29.131Z,9.13
2022-12-07T18:56:09.833Z,9.45
2022-12-07T18:58:37.444Z,9.52
2022-12-07T19:01:04.069Z,7.75
2022-12-07T19:03:35.182Z,12.63
2022-12-07T19:06:08.017Z,9.10
2022-12-07T19:08:34.945Z,9.15
2022-12-07T19:11:24.023Z,11.07
2022-12-07T19:13:51.058Z,11.38
2022-12-07T19:16:17.890Z,10.73
2022-12-07T19:18:50.670Z,8.18
2022-12-07T19:21:18.654Z,9.35
2022-12-07T19:23:45.476Z,12.25
2022-12-07T19:26:12.233Z,12.07
2022-12-07T19:28:38.768Z,9.30
2022-12-07T19:31:09.239Z,10.65
2022-12-07T19:33:35.897Z,11.93
2022-12-07T19:36:02.525Z,11.02
2022-12-07T19:38:31.271Z,11.75
2022-12-07T19:41:29.498Z,7.78
2022-12-07T19:43:56.278Z,11.50
2022-12-07T19:46:24.018Z,12.68
2022-12-07T19:48:50.898Z,9.82
2022-12-07T19:51:18.666Z,10.98
2022-12-07T19:53:45.244Z,11.07
2022-12-07T19:56:19.795Z,9.10
2022-12-07T19:58:48.054Z,10.82
2022-12-07T20:01:15.317Z,7.47
2022-12-07T20:03:42.226Z,12.50
2022-12-07T20:06:15.825Z,11.00
2022-12-07T20:08:43.217Z,12.30
2022-12-07T20:11:28.608Z,10.65
2022-12-07T20:13:55.322Z,11.25
2022-12-07T20:16:22.092Z,14.68
2022-12-07T20:18:55.926Z,11.38
2022-12-07T20:21:24.849Z,11.70
2022-12-07T20:23:51.832Z,11.70
2022-12-07T20:26:19.289Z,15.00
2022-12-07T20:28:46.736Z,17.58
2022-12-07T20:31:14.651Z,20.35
2022-12-07T20:33:43.462Z,14.60
2022-12-07T20:36:11.324Z,13.98
2022-12-07T20:38:37.830Z,10.68
2022-12-07T20:41:07.257Z,15.73
2022-12-07T20:46:01.318Z,12.30
2022-12-07T20:48:28.093Z,15.13
2022-12-07T20:50:54.665Z,14.70
2022-12-07T20:53:21.202Z,13.60
2022-12-07T20:55:47.649Z,14.32
2022-12-07T20:58:14.367Z,12.73
2022-12-07T21:00:40.911Z,14.75
2022-12-07T21:03:07.474Z,12.50
2022-12-07T21:05:35.391Z,14.75
2022-12-07T21:08:02.489Z,10.88
2022-12-07T21:10:29.285Z,12.45
2022-12-07T21:12:56.450Z,16.00
2022-12-07T21:15:23.377Z,16.88
2022-12-07T21:17:50.393Z,12.00
2022-12-07T21:20:17.380Z,12.05
2022-12-07T21:22:44.104Z,14.93
2022-12-07T21:25:10.975Z,13.80
2022-12-07T21:27:37.823Z,12.15
2022-12-07T21:30:04.722Z,13.07
2022-12-07T21:32:31.363Z,13.70
2022-12-07T21:34:57.945Z,11.13
2022-12-07T21:37:24.668Z,16.50
2022-12-07T21:39:51.187Z,11.68
2022-12-07T21:42:17.724Z,14.35
2022-12-07T21:44:44.437Z,13.30
2022-12-07T21:47:10.968Z,10.50
2022-12-07T21:49:37.591Z,12.25
2022-12-07T21:52:05.087Z,11.77
2022-12-07T21:54:31.801Z,14.15
2022-12-07T21:56:58.442Z,15.65
2022-12-07T21:59:25.139Z,12.88
2022-12-07T22:02:12.235Z,11.10
2022-12-07T22:04:38.868Z,15.18
2022-12-07T22:07:05.460Z,15.52
2022-12-07T22:09:32.433Z,10.07
2022-12-07T22:11:58.960Z,13.70
2022-12-07T22:14:44.028Z,12.52
2022-12-07T22:17:10.778Z,14.43
2022-12-07T22:19:37.512Z,14.18
2022-12-07T22:22:04.001Z,14.57
2022-12-07T22:24:30.568Z,14.00
2022-12-07T22:26:57.077Z,15.05
2022-12-07T22:29:24.575Z,15.23
2022-12-07T22:31:53.951Z,14.23
2022-12-07T22:34:21.437Z,17.10
2022-12-07T22:36:48.306Z,15.63
2022-12-07T22:39:14.889Z,12.85
2022-12-07T22:41:41.511Z,16.25
2022-12-07T22:44:08.511Z,18.25
2022-12-07T22:46:35.912Z,14.65
2022-12-07T22:49:03.138Z,14.18
2022-12-07T22:51:30.678Z,14.18
2022-12-07T22:54:02.561Z,14.73
2022-12-07T22:56:31.128Z,12.85
2022-12-07T22:58:57.682Z,13.07
2022-12-07T23:01:24.748Z,13.45
2022-12-07T23:03:51.540Z,13.30
2022-12-07T23:06:31.317Z,13.02
2022-12-07T23:09:00.043Z,15.85
2022-12-07T23:11:49.137Z,13.80
2022-12-07T23:14:18.862Z,12.57
2022-12-07T23:16:45.592Z,11.40
2022-12-07T23:19:12.373Z,13.98
2022-12-07T23:21:40.165Z,13.48
2022-12-07T23:24:07.309Z,12.50
2022-12-07T23:26:33.761Z,13.43
2022-12-07T23:29:00.314Z,17.30
2022-12-07T23:31:27.082Z,15.40
2022-12-07T23:33:53.597Z,17.70
2022-12-07T23:36:23.409Z,14.50
2022-12-07T23:38:51.974Z,13.20
2022-12-07T23:41:21.055Z,13.18
2022-12-07T23:43:48.039Z,14.50
2022-12-07T23:46:17.408Z,11.63
2022-12-07T23:48:44.495Z,14.32
2022-12-07T23:51:12.458Z,13.80
2022-12-07T23:53:41.492Z,11.70
2022-12-07T23:56:12.512Z,12.30
2022-12-07T23:58:39.149Z,14.02
